Sonora Municipal Airport
KSOA : now visible

Airfield :











YOU CAN JOIN US ON...

 
LOGIN :

Register | Disclaimer

   EN    FR    IT 

 









Legend :    VFR   Marginal VFR   IFR   Intensive IFR   Very Intensive IFR
Visi :
Ceiling :
>= 8 km
>= 3000ft
5 to 8 km
1000 to 3000 ft
1500m to 5 km
500 to 1000 ft
800 to 1500m
200 to 500 ft
< 800m
< 200 ft
Symbols :   Thunderstorms  Fog  Heavy snow  Heavy precipitations  Wind > 20 kt






- Airport Elevation : 2140 ft


KSOA - Sonora Municipal

CURRENT METAR :
  • 152315Z AUTO 00000KT 9SM -RA CLR 22/22 A2999 RMK AO2

EXPIRED METARs :
  • 152255Z AUTO 00000KT 5SM -RA 22/22 A3000 RMK AO2
  • 152235Z AUTO 00000KT 10SM CLR 22/22 A3001 RMK AO2
  • 152215Z AUTO 00000KT 10SM CLR 23/22 A2999 RMK AO2
  • 152155Z AUTO 00000KT 7SM -RA FEW034 FEW042 FEW095 23/22 A2999 RMK AO2
  • 152135Z AUTO 00000KT 7SM -RA CLR 23/21 A3001 RMK AO2
  • 152115Z AUTO 00000KT 10SM CLR 23/21 A2999 RMK AO2
  • 152055Z AUTO 00000KT 10SM FEW110 23/22 A2998 RMK AO2
  • 152035Z AUTO 00000KT 10SM CLR 22/21 A2998 RMK AO2

TAF KSOA
Valid from the 16 at 00:00 until the 17 at 00:00 UTC


152325Z 1600/1624 VRB04KT P6SM -SHRA FEW035 BKN120
FM160430 02013G20KT P6SM BKN250
FM161800 03011KT P6SM SKC



MET'MAP, your aeronautical weather chart ! - Copyright ORBIFLY December 2007 - Disclaimer

ORBIFLY MET'MAP TEAM :

Programming & Development : Alexandra Zaïnal
Concept & Development : Baudouin d'Aumeries
Co-Development & Prog : Marc-Olivier Méhu
Technical & hardware support : Manuel Goepfert

Contact : metmap@orbifly.com




SOURCES & CREDITS :

   NOAA       Earth
Advisory